createdAt,value
2018-03-06T00:00:37.373Z,3.65
2018-03-06T00:01:37.319Z,3.68
2018-03-06T00:02:37.303Z,3.68
2018-03-06T00:03:37.236Z,3.69
2018-03-06T00:04:37.232Z,3.68
2018-03-06T00:05:37.176Z,3.70
2018-03-06T00:06:37.140Z,3.70
2018-03-06T00:07:37.088Z,3.68
2018-03-06T00:08:37.068Z,3.68
2018-03-06T00:09:37.017Z,3.59
2018-03-06T00:10:36.951Z,3.58
2018-03-06T00:11:36.914Z,3.59
2018-03-06T00:12:36.882Z,3.55
2018-03-06T00:13:36.852Z,3.45
2018-03-06T00:14:36.804Z,3.47
2018-03-06T00:15:36.753Z,3.47
2018-03-06T00:16:36.711Z,3.44
2018-03-06T00:17:36.680Z,3.41
2018-03-06T00:18:36.651Z,3.50
2018-03-06T00:19:36.601Z,3.47
2018-03-06T00:20:36.574Z,3.48
2018-03-06T00:21:36.509Z,3.47
2018-03-06T00:22:36.472Z,3.45
2018-03-06T00:23:36.428Z,3.51
2018-03-06T00:24:36.411Z,3.47
2018-03-06T00:25:36.366Z,3.47
2018-03-06T00:26:36.316Z,3.55
2018-03-06T00:27:36.266Z,3.47
2018-03-06T00:28:36.263Z,3.56
2018-03-06T00:29:36.187Z,3.47
2018-03-06T00:30:36.166Z,3.48
2018-03-06T00:31:36.106Z,3.44
2018-03-06T00:32:36.058Z,3.48
2018-03-06T00:33:36.062Z,3.44
2018-03-06T00:34:35.992Z,3.36
2018-03-06T00:35:35.944Z,3.26
2018-03-06T00:36:35.926Z,3.31
2018-03-06T00:37:35.880Z,3.25
2018-03-06T00:38:35.843Z,3.36
2018-03-06T00:39:35.785Z,3.28
2018-03-06T00:40:35.783Z,3.22
2018-03-06T00:41:35.709Z,3.22
2018-03-06T00:42:35.689Z,3.18
2018-03-06T00:43:35.612Z,3.07
2018-03-06T00:44:35.572Z,3.16
2018-03-06T00:45:35.591Z,3.08
2018-03-06T00:46:35.502Z,3.03
2018-03-06T00:47:35.458Z,2.89
2018-03-06T00:48:35.458Z,2.97
2018-03-06T00:49:35.378Z,2.92
2018-03-06T00:50:35.361Z,2.92
2018-03-06T00:51:35.287Z,2.83
2018-03-06T00:52:35.266Z,2.79
2018-03-06T00:53:35.219Z,2.77
2018-03-06T00:54:35.173Z,2.71
2018-03-06T00:55:35.128Z,2.64
2018-03-06T00:56:35.086Z,2.57
2018-03-06T00:57:35.054Z,2.60
2018-03-06T00:58:35.057Z,2.44
2018-03-06T00:59:34.981Z,2.42
2018-03-06T01:00:34.920Z,2.46
2018-03-06T01:01:34.885Z,2.42
2018-03-06T01:02:34.845Z,2.56
2018-03-06T01:03:34.855Z,2.56
2018-03-06T01:04:34.756Z,2.53
2018-03-06T01:05:34.718Z,2.51
2018-03-06T01:06:34.698Z,2.49
2018-03-06T01:07:34.632Z,2.57
2018-03-06T01:08:34.593Z,2.57
2018-03-06T01:09:34.554Z,2.62
2018-03-06T01:10:34.509Z,2.68
2018-03-06T01:11:34.473Z,2.75
2018-03-06T01:12:34.444Z,2.85
2018-03-06T01:13:34.386Z,2.79
2018-03-06T01:14:34.349Z,2.82
2018-03-06T01:15:34.331Z,2.83
2018-03-06T01:16:34.456Z,2.95
2018-03-06T01:17:34.246Z,2.93
2018-03-06T01:18:34.184Z,2.86
2018-03-06T01:19:34.144Z,2.89
2018-03-06T01:20:34.110Z,2.83
2018-03-06T01:21:34.064Z,2.82
2018-03-06T01:22:34.022Z,2.75
2018-03-06T01:23:33.995Z,2.75
2018-03-06T01:24:33.963Z,2.67
2018-03-06T01:25:33.937Z,2.67
2018-03-06T01:26:33.860Z,2.67
2018-03-06T01:27:33.822Z,2.68
2018-03-06T01:28:33.777Z,2.61
2018-03-06T01:29:33.744Z,2.62
2018-03-06T01:30:33.716Z,2.64
2018-03-06T01:31:33.664Z,2.68
2018-03-06T01:32:33.636Z,2.60
2018-03-06T01:33:33.578Z,2.62
2018-03-06T01:34:33.534Z,2.67
2018-03-06T01:35:33.495Z,2.46
2018-03-06T01:36:33.456Z,2.49
2018-03-06T01:37:33.451Z,2.49
2018-03-06T01:38:33.369Z,2.54
2018-03-06T01:39:33.330Z,2.62
2018-03-06T01:40:33.305Z,2.64
2018-03-06T01:41:33.247Z,2.62
2018-03-06T01:42:33.205Z,2.68
2018-03-06T01:43:33.171Z,2.64
2018-03-06T01:44:33.161Z,2.74
2018-03-06T01:45:33.082Z,2.82
2018-03-06T01:46:33.052Z,2.79
2018-03-06T01:47:33.002Z,2.77
2018-03-06T01:48:32.992Z,2.83
2018-03-06T01:49:33.934Z,2.82
2018-03-06T01:50:34.400Z,2.83
2018-03-06T01:51:32.857Z,2.77
2018-03-06T01:52:32.795Z,2.80
2018-03-06T01:53:32.792Z,2.77
2018-03-06T01:54:32.727Z,2.72
2018-03-06T01:55:32.676Z,2.75
2018-03-06T01:56:32.670Z,2.69
2018-03-06T01:57:32.613Z,2.68
2018-03-06T01:58:32.550Z,2.67
2018-03-06T01:59:32.549Z,2.71
2018-03-06T02:00:32.515Z,2.65
2018-03-06T02:01:32.433Z,2.72
2018-03-06T02:02:32.393Z,2.72
2018-03-06T02:03:32.378Z,2.67
2018-03-06T02:04:32.363Z,2.65
2018-03-06T02:05:32.294Z,2.62
2018-03-06T02:06:32.228Z,2.60
2018-03-06T02:07:32.202Z,2.65
2018-03-06T02:08:32.154Z,2.67
2018-03-06T02:09:32.108Z,2.67
2018-03-06T02:10:32.098Z,2.60
2018-03-06T02:11:32.051Z,2.61
2018-03-06T02:12:32.012Z,2.49
2018-03-06T02:13:31.986Z,2.50
2018-03-06T02:14:31.913Z,2.46
2018-03-06T02:15:31.862Z,2.49
2018-03-06T02:16:31.821Z,2.54
2018-03-06T02:17:31.780Z,2.54
2018-03-06T02:18:31.741Z,2.67
2018-03-06T02:19:31.776Z,2.60
2018-03-06T02:20:31.657Z,2.65
2018-03-06T02:21:31.650Z,2.67
2018-03-06T02:22:31.576Z,2.69
2018-03-06T02:23:31.572Z,2.67
2018-03-06T02:24:31.498Z,2.65
2018-03-06T02:25:31.459Z,2.69
2018-03-06T02:26:31.415Z,2.64
2018-03-06T02:27:31.398Z,2.56
2018-03-06T02:28:31.357Z,2.60
2018-03-06T02:29:31.292Z,2.57
2018-03-06T02:30:31.252Z,2.53
2018-03-06T02:31:31.232Z,2.62
2018-03-06T02:32:31.243Z,2.47
2018-03-06T02:33:31.131Z,2.49
2018-03-06T02:34:31.087Z,2.61
2018-03-06T02:35:31.066Z,2.57
2018-03-06T02:36:31.008Z,2.67
2018-03-06T02:37:30.975Z,2.67
2018-03-06T02:38:30.964Z,2.71
2018-03-06T02:39:30.884Z,2.89
2018-03-06T02:40:30.844Z,2.83
2018-03-06T02:41:30.820Z,2.98
2018-03-06T02:42:30.761Z,3.01
2018-03-06T02:43:30.824Z,3.01
2018-03-06T02:44:30.689Z,3.05
2018-03-06T02:45:30.656Z,3.18
2018-03-06T02:46:30.603Z,3.07
2018-03-06T02:47:30.562Z,3.18
2018-03-06T02:48:30.519Z,3.11
2018-03-06T02:49:30.479Z,3.22
2018-03-06T02:50:30.439Z,3.21
2018-03-06T02:51:30.397Z,3.29
2018-03-06T02:52:30.408Z,3.31
2018-03-06T02:53:30.325Z,3.45
2018-03-06T02:54:30.275Z,3.41
2018-03-06T02:55:30.261Z,3.34
2018-03-06T02:56:30.234Z,3.47
2018-03-06T02:57:30.169Z,3.51
2018-03-06T02:58:30.155Z,3.50
2018-03-06T02:59:30.098Z,3.50
2018-03-06T03:00:30.041Z,3.44
2018-03-06T03:01:29.992Z,3.53
2018-03-06T03:02:29.964Z,3.50
2018-03-06T03:03:29.941Z,3.45
2018-03-06T03:04:29.870Z,3.47
2018-03-06T03:05:29.852Z,3.44
2018-03-06T03:06:29.797Z,3.51
2018-03-06T03:07:29.751Z,3.41
2018-03-06T03:08:29.707Z,3.25
2018-03-06T03:09:29.680Z,3.36
2018-03-06T03:10:29.629Z,3.31
2018-03-06T03:11:29.585Z,3.31
2018-03-06T03:12:29.568Z,3.31
2018-03-06T03:13:29.505Z,3.23
2018-03-06T03:14:29.469Z,3.18
2018-03-06T03:15:29.429Z,3.21
2018-03-06T03:16:29.388Z,3.22
2018-03-06T03:17:29.340Z,3.26
2018-03-06T03:18:29.333Z,3.16
2018-03-06T03:19:29.266Z,3.16
2018-03-06T03:20:29.230Z,3.25
2018-03-06T03:21:29.184Z,3.34
2018-03-06T03:22:29.154Z,3.34
2018-03-06T03:23:29.110Z,3.47
2018-03-06T03:24:29.061Z,3.50
2018-03-06T03:25:29.031Z,3.62
2018-03-06T03:26:28.999Z,3.66
2018-03-06T03:27:28.953Z,3.73
2018-03-06T03:28:28.899Z,3.65
2018-03-06T03:29:28.860Z,3.73
2018-03-06T03:30:28.818Z,3.80
2018-03-06T03:31:28.797Z,3.95
2018-03-06T03:32:28.738Z,3.99
2018-03-06T03:33:28.695Z,3.98
2018-03-06T03:34:28.687Z,4.04
2018-03-06T03:35:28.625Z,4.06
2018-03-06T03:36:28.594Z,3.99
2018-03-06T03:37:28.538Z,4.12
2018-03-06T03:38:28.498Z,4.19
2018-03-06T03:39:28.486Z,4.23
2018-03-06T03:40:28.470Z,4.22
2018-03-06T03:41:28.393Z,4.16
2018-03-06T03:42:28.337Z,4.19
2018-03-06T03:43:28.299Z,4.20
2018-03-06T03:44:28.259Z,4.20
2018-03-06T03:45:28.250Z,4.20
2018-03-06T03:46:28.201Z,4.19
2018-03-06T03:47:28.159Z,4.17
2018-03-06T03:48:28.113Z,3.98
2018-03-06T03:49:28.061Z,4.02
2018-03-06T03:50:28.021Z,3.96
2018-03-06T03:51:27.977Z,3.99
2018-03-06T03:52:27.936Z,3.84
2018-03-06T03:53:27.897Z,3.84
2018-03-06T03:54:27.853Z,3.83
2018-03-06T03:55:27.814Z,3.86
2018-03-06T03:56:27.779Z,3.86
2018-03-06T03:57:27.738Z,3.87
2018-03-06T03:58:27.708Z,3.84
2018-03-06T03:59:27.659Z,3.81
2018-03-06T04:00:27.647Z,3.80
2018-03-06T04:01:27.612Z,3.88
2018-03-06T04:02:27.543Z,3.96
2018-03-06T04:03:27.510Z,4.06
2018-03-06T04:04:27.452Z,4.01
2018-03-06T04:05:27.433Z,4.06
2018-03-06T04:06:27.370Z,4.14
2018-03-06T04:07:27.337Z,4.04
2018-03-06T04:08:27.290Z,4.12
2018-03-06T04:09:27.254Z,4.14
2018-03-06T04:10:27.223Z,4.20
2018-03-06T04:11:27.187Z,4.20
2018-03-06T04:12:27.136Z,4.19
2018-03-06T04:13:27.118Z,4.06
2018-03-06T04:14:27.049Z,4.13
2018-03-06T04:15:27.029Z,4.04
2018-03-06T04:16:26.984Z,4.10
2018-03-06T04:17:26.974Z,4.08
2018-03-06T04:18:26.892Z,4.04
2018-03-06T04:19:26.859Z,4.04
2018-03-06T04:20:26.856Z,4.06
2018-03-06T04:21:26.782Z,4.05
2018-03-06T04:22:26.727Z,4.12
2018-03-06T04:23:26.689Z,4.05
2018-03-06T04:24:26.650Z,4.08
2018-03-06T04:25:26.608Z,4.12
2018-03-06T04:26:26.565Z,3.98
2018-03-06T04:27:26.535Z,4.04
2018-03-06T04:28:26.525Z,3.99
2018-03-06T04:29:26.446Z,3.96
2018-03-06T04:30:26.411Z,3.91
2018-03-06T04:31:26.393Z,3.78
2018-03-06T04:32:26.338Z,3.84
2018-03-06T04:33:26.284Z,3.84
2018-03-06T04:34:26.247Z,3.83
2018-03-06T04:35:26.203Z,3.80
2018-03-06T04:36:26.166Z,3.88
2018-03-06T04:37:26.122Z,3.81
2018-03-06T04:38:26.089Z,3.98
2018-03-06T04:39:26.068Z,3.98
2018-03-06T04:40:26.017Z,4.08
2018-03-06T04:41:25.967Z,4.06
2018-03-06T04:42:25.929Z,4.13
2018-03-06T04:43:25.891Z,4.05
2018-03-06T04:44:25.847Z,4.08
2018-03-06T04:45:25.816Z,4.17
2018-03-06T04:46:25.780Z,4.20
2018-03-06T04:47:25.749Z,4.17
2018-03-06T04:48:25.708Z,4.13
2018-03-06T04:49:25.659Z,4.04
2018-03-06T04:50:25.677Z,4.05
2018-03-06T04:51:25.567Z,4.02
2018-03-06T04:52:25.540Z,4.01
2018-03-06T04:53:25.485Z,4.01
2018-03-06T04:54:25.447Z,3.98
2018-03-06T04:55:25.403Z,3.84
2018-03-06T04:56:25.367Z,3.78
2018-03-06T04:57:25.352Z,3.70
2018-03-06T04:58:25.316Z,3.70
2018-03-06T04:59:25.244Z,3.73
2018-03-06T05:00:25.223Z,3.66
2018-03-06T05:01:25.162Z,3.65
2018-03-06T05:02:25.143Z,3.58
2018-03-06T05:03:25.084Z,3.70
2018-03-06T05:04:25.054Z,3.76
2018-03-06T05:05:25.017Z,3.84
2018-03-06T05:06:24.963Z,3.95
2018-03-06T05:07:24.924Z,3.96
2018-03-06T05:08:24.882Z,3.99
2018-03-06T05:09:24.840Z,4.04
2018-03-06T05:10:24.800Z,4.05
2018-03-06T05:11:24.760Z,4.08
2018-03-06T05:12:24.723Z,4.08
2018-03-06T05:13:24.704Z,4.05
2018-03-06T05:14:24.640Z,4.01
2018-03-06T05:15:24.597Z,4.14
2018-03-06T05:16:24.558Z,4.13
2018-03-06T05:17:24.520Z,4.19
2018-03-06T05:18:24.477Z,4.13
2018-03-06T05:19:24.438Z,4.13
2018-03-06T05:20:24.397Z,4.13
2018-03-06T05:21:24.359Z,4.19
2018-03-06T05:22:24.315Z,4.19
2018-03-06T05:23:24.276Z,4.14
2018-03-06T05:24:24.235Z,4.23
2018-03-06T05:25:24.194Z,4.20
2018-03-06T05:26:24.157Z,4.17
2018-03-06T05:27:24.113Z,4.24
2018-03-06T05:28:24.073Z,4.22
2018-03-06T05:29:24.032Z,4.24
2018-03-06T05:30:23.995Z,4.20
2018-03-06T05:31:23.952Z,4.22
2018-03-06T05:32:23.911Z,4.28
2018-03-06T05:33:23.873Z,4.19
2018-03-06T05:34:23.849Z,4.31
2018-03-06T05:35:23.793Z,4.30
2018-03-06T05:36:24.388Z,4.22
2018-03-06T05:37:23.709Z,4.30
2018-03-06T05:38:23.671Z,4.32
2018-03-06T05:39:23.633Z,4.32
2018-03-06T05:40:23.588Z,4.23
2018-03-06T05:41:23.546Z,4.23
2018-03-06T05:42:23.507Z,4.23
2018-03-06T05:43:23.468Z,4.20
2018-03-06T05:44:23.427Z,4.20
2018-03-06T05:45:23.388Z,4.17
2018-03-06T05:46:23.349Z,4.19
2018-03-06T05:47:23.308Z,4.19
2018-03-06T05:48:23.266Z,4.19
2018-03-06T05:49:23.230Z,4.17
2018-03-06T05:50:23.187Z,4.13
2018-03-06T05:51:23.149Z,4.08
2018-03-06T05:52:23.103Z,4.12
2018-03-06T05:53:23.065Z,4.02
2018-03-06T05:54:23.104Z,4.06
2018-03-06T05:55:22.988Z,4.04
2018-03-06T05:56:22.951Z,4.13
2018-03-06T05:57:22.904Z,4.02
2018-03-06T05:58:22.862Z,4.04
2018-03-06T05:59:22.824Z,4.04
2018-03-06T06:00:22.785Z,4.02
2018-03-06T06:01:22.743Z,4.04
2018-03-06T06:02:22.702Z,4.02
2018-03-06T06:03:22.685Z,3.98
2018-03-06T06:04:22.623Z,4.05
2018-03-06T06:05:22.582Z,4.05
2018-03-06T06:06:22.562Z,4.04
2018-03-06T06:07:22.499Z,3.96
2018-03-06T06:08:22.470Z,4.13
2018-03-06T06:09:22.422Z,3.98
2018-03-06T06:10:22.388Z,4.10
2018-03-06T06:11:22.340Z,4.10
2018-03-06T06:12:22.300Z,3.95
2018-03-06T06:13:22.258Z,4.06
2018-03-06T06:14:22.220Z,3.94
2018-03-06T06:15:22.178Z,3.95
2018-03-06T06:16:22.138Z,4.04
2018-03-06T06:17:22.097Z,4.08
2018-03-06T06:18:22.062Z,4.08
2018-03-06T06:19:22.017Z,3.95
2018-03-06T06:20:21.977Z,3.92
2018-03-06T06:21:21.977Z,3.95
2018-03-06T06:22:21.912Z,3.92
2018-03-06T06:23:21.856Z,3.92
2018-03-06T06:24:21.815Z,3.77
2018-03-06T06:25:21.777Z,3.87
2018-03-06T06:26:21.736Z,3.87
2018-03-06T06:27:21.692Z,3.80
2018-03-06T06:28:21.653Z,3.76
2018-03-06T06:29:21.612Z,3.56
2018-03-06T06:30:21.572Z,3.68
2018-03-06T06:31:21.535Z,3.55
2018-03-06T06:32:21.491Z,3.50
2018-03-06T06:33:21.450Z,3.51
2018-03-06T06:34:21.410Z,3.29
2018-03-06T06:35:21.388Z,3.26
2018-03-06T06:36:21.329Z,3.42
2018-03-06T06:37:21.288Z,3.34
2018-03-06T06:38:21.255Z,3.32
2018-03-06T06:39:21.208Z,3.32
2018-03-06T06:40:21.169Z,3.32
2018-03-06T06:41:21.127Z,3.40
2018-03-06T06:42:21.087Z,3.41
2018-03-06T06:43:21.048Z,3.44
2018-03-06T06:44:21.005Z,3.51
2018-03-06T06:45:20.967Z,3.47
2018-03-06T06:46:20.927Z,3.34
2018-03-06T06:47:20.883Z,3.40
2018-03-06T06:48:20.843Z,3.32
2018-03-06T06:49:20.805Z,3.32
2018-03-06T06:50:20.762Z,3.26
2018-03-06T06:51:20.737Z,3.32
2018-03-06T06:52:20.682Z,3.31
2018-03-06T06:53:20.646Z,3.32
2018-03-06T06:54:20.599Z,3.48
2018-03-06T06:55:20.560Z,3.51
2018-03-06T06:56:20.520Z,3.53
2018-03-06T06:57:20.478Z,3.51
2018-03-06T06:58:20.439Z,3.62
2018-03-06T06:59:20.399Z,3.68
2018-03-06T07:00:20.357Z,3.70
2018-03-06T07:01:20.320Z,3.65
2018-03-06T07:02:20.277Z,3.68
2018-03-06T07:03:20.239Z,3.73
2018-03-06T07:04:20.242Z,3.69
2018-03-06T07:05:20.159Z,3.74
2018-03-06T07:06:20.118Z,3.80
2018-03-06T07:07:20.077Z,3.77
2018-03-06T07:08:20.034Z,3.84
2018-03-06T07:09:19.995Z,3.88
2018-03-06T07:10:20.026Z,3.92
2018-03-06T07:11:19.914Z,3.92
2018-03-06T07:12:19.875Z,4.01
2018-03-06T07:13:19.834Z,4.01
2018-03-06T07:14:19.795Z,4.08
2018-03-06T07:15:19.756Z,4.12
2018-03-06T07:16:19.718Z,4.19
2018-03-06T07:17:19.675Z,4.16
2018-03-06T07:18:19.636Z,4.26
2018-03-06T07:19:20.444Z,4.42
2018-03-06T07:20:19.554Z,4.45
2018-03-06T07:21:19.516Z,4.56
2018-03-06T07:22:19.476Z,4.63
2018-03-06T07:23:19.440Z,4.67
2018-03-06T07:24:19.395Z,4.62
2018-03-06T07:25:19.356Z,4.77
2018-03-06T07:26:19.317Z,4.77
2018-03-06T07:27:19.280Z,4.77
2018-03-06T07:28:19.236Z,4.93
2018-03-06T07:29:19.200Z,4.89
2018-03-06T07:30:19.159Z,4.86
2018-03-06T07:31:19.117Z,4.94
2018-03-06T07:32:19.078Z,4.90
2018-03-06T07:33:19.040Z,4.92
2018-03-06T07:34:19.006Z,4.92
2018-03-06T07:35:18.962Z,5.02
2018-03-06T07:36:18.952Z,5.05
2018-03-06T07:37:18.882Z,5.08
2018-03-06T07:38:18.844Z,5.14
2018-03-06T07:39:18.805Z,5.15
2018-03-06T07:40:18.764Z,5.28
2018-03-06T07:41:18.724Z,5.30
2018-03-06T07:42:18.685Z,5.36
2018-03-06T07:43:18.646Z,5.38
2018-03-06T07:44:18.607Z,5.35
2018-03-06T07:45:18.601Z,5.48
2018-03-06T07:46:18.530Z,5.54
2018-03-06T07:47:18.488Z,5.61
2018-03-06T07:48:18.450Z,5.68
2018-03-06T07:49:18.416Z,5.66
2018-03-06T07:50:18.375Z,5.79
2018-03-06T07:51:18.334Z,5.83
2018-03-06T07:52:18.294Z,5.97
2018-03-06T07:53:18.255Z,6.20
2018-03-06T07:54:18.219Z,6.51
2018-03-06T07:55:18.181Z,6.62
2018-03-06T07:56:18.141Z,6.67
2018-03-06T07:57:18.108Z,6.95
2018-03-06T07:58:18.066Z,7.23
2018-03-06T07:59:18.049Z,7.38
2018-03-06T08:00:17.991Z,7.43
2018-03-06T08:01:17.953Z,7.50
2018-03-06T08:02:17.926Z,7.48
2018-03-06T08:03:17.881Z,7.50
2018-03-06T08:04:17.846Z,7.47
2018-03-06T08:05:17.833Z,7.35
2018-03-06T08:06:17.770Z,7.42
2018-03-06T08:07:17.735Z,7.38
2018-03-06T08:08:17.698Z,7.39
2018-03-06T08:09:17.658Z,7.42
2018-03-06T08:10:17.626Z,7.51
2018-03-06T08:11:17.604Z,7.53
2018-03-06T08:12:17.550Z,7.61
2018-03-06T08:13:17.515Z,7.58
2018-03-06T08:14:17.479Z,7.66
2018-03-06T08:15:17.441Z,7.80
2018-03-06T08:16:17.410Z,7.95
2018-03-06T08:17:17.367Z,8.06
2018-03-06T08:18:17.332Z,8.33
2018-03-06T08:19:17.297Z,8.44
2018-03-06T08:20:17.261Z,8.53
2018-03-06T08:21:17.225Z,8.52
2018-03-06T08:22:17.192Z,8.45
2018-03-06T08:23:17.157Z,8.33
2018-03-06T08:24:17.119Z,8.51
2018-03-06T08:25:17.086Z,8.79
2018-03-06T08:26:17.049Z,9.21
2018-03-06T08:27:17.014Z,9.59
2018-03-06T08:28:16.978Z,9.86
2018-03-06T08:29:16.946Z,10.09
2018-03-06T08:30:16.970Z,10.22
2018-03-06T08:31:16.881Z,10.38
2018-03-06T08:32:16.846Z,10.48
2018-03-06T08:33:16.815Z,10.44
2018-03-06T08:34:16.781Z,10.69
2018-03-06T08:35:16.750Z,10.94
2018-03-06T08:36:16.719Z,11.10
2018-03-06T08:37:16.688Z,10.93
2018-03-06T08:38:16.656Z,10.72
2018-03-06T08:39:16.623Z,10.35
2018-03-06T08:40:16.590Z,10.42
2018-03-06T08:41:16.561Z,10.04
2018-03-06T08:42:16.531Z,9.87
2018-03-06T08:43:16.491Z,9.77
2018-03-06T08:44:16.461Z,9.73
2018-03-06T08:45:16.431Z,9.86
2018-03-06T08:46:16.395Z,9.73
2018-03-06T08:47:16.363Z,9.91
2018-03-06T08:48:16.327Z,9.91
2018-03-06T08:49:16.314Z,9.86
2018-03-06T08:50:16.262Z,9.89
2018-03-06T08:51:16.232Z,9.72
2018-03-06T08:52:16.196Z,9.61
2018-03-06T08:53:16.160Z,9.69
2018-03-06T08:54:16.129Z,9.73
2018-03-06T08:55:16.094Z,9.59
2018-03-06T08:56:16.061Z,9.73
2018-03-06T08:57:16.026Z,9.94
2018-03-06T08:58:16.010Z,10.41
2018-03-06T08:59:15.957Z,10.48
2018-03-06T09:00:15.927Z,10.57
2018-03-06T09:01:15.890Z,10.63
2018-03-06T09:02:15.857Z,10.67
2018-03-06T09:03:15.824Z,10.71
2018-03-06T09:04:15.793Z,10.64
2018-03-06T09:05:15.755Z,10.54
2018-03-06T09:06:15.726Z,10.72
2018-03-06T09:07:15.692Z,10.97
2018-03-06T09:08:15.671Z,10.93
2018-03-06T09:09:15.621Z,11.17
2018-03-06T09:10:15.591Z,11.45
2018-03-06T09:11:15.556Z,11.81
2018-03-06T09:12:15.550Z,12.04
2018-03-06T09:13:15.494Z,12.09
2018-03-06T09:14:15.460Z,12.25
2018-03-06T09:15:15.430Z,12.61
2018-03-06T09:16:15.399Z,13.04
2018-03-06T09:17:15.367Z,13.16
2018-03-06T09:18:15.334Z,12.95
2018-03-06T09:19:15.894Z,12.85
2018-03-06T09:20:15.272Z,12.75
2018-03-06T09:21:15.242Z,12.49
2018-03-06T09:22:15.211Z,12.36
2018-03-06T09:23:15.181Z,12.46
2018-03-06T09:24:15.150Z,12.22
2018-03-06T09:25:15.118Z,12.03
2018-03-06T09:26:15.086Z,12.09
2018-03-06T09:27:15.055Z,11.84
2018-03-06T09:28:15.023Z,11.62
2018-03-06T09:29:14.990Z,11.52
2018-03-06T09:30:14.984Z,11.35
2018-03-06T09:31:14.929Z,11.41
2018-03-06T09:32:14.895Z,11.36
2018-03-06T09:33:14.866Z,11.40
2018-03-06T09:34:14.833Z,11.36
2018-03-06T09:35:14.803Z,11.47
2018-03-06T09:36:14.763Z,11.94
2018-03-06T09:37:14.733Z,12.13
2018-03-06T09:38:14.707Z,12.37
2018-03-06T09:39:14.672Z,12.64
2018-03-06T09:40:14.639Z,13.09
2018-03-06T09:41:14.608Z,13.31
2018-03-06T09:42:14.578Z,13.77
2018-03-06T09:43:14.548Z,13.77
2018-03-06T09:44:14.524Z,14.08
2018-03-06T09:45:14.484Z,14.14
2018-03-06T09:46:14.458Z,14.73
2018-03-06T09:47:14.429Z,15.09
2018-03-06T09:48:14.398Z,15.33
2018-03-06T09:49:14.369Z,15.58
2018-03-06T09:50:14.342Z,15.62
2018-03-06T09:51:14.312Z,16.01
2018-03-06T09:52:14.288Z,16.60
2018-03-06T09:53:14.260Z,17.06
2018-03-06T09:54:14.233Z,17.26
2018-03-06T09:55:14.206Z,17.72
2018-03-06T09:56:14.179Z,18.03
2018-03-06T09:57:14.155Z,18.04
2018-03-06T09:58:14.128Z,18.04
2018-03-06T09:59:14.103Z,18.10
2018-03-06T10:00:14.081Z,18.40
2018-03-06T10:01:14.055Z,18.63
2018-03-06T10:02:14.028Z,18.47
2018-03-06T10:03:14.003Z,18.77
2018-03-06T10:04:13.978Z,19.22
2018-03-06T10:05:13.955Z,19.31
2018-03-06T10:06:13.933Z,19.76
2018-03-06T10:07:13.907Z,19.94
2018-03-06T10:08:13.880Z,19.95
2018-03-06T10:09:13.855Z,20.24
2018-03-06T10:10:13.832Z,20.32
2018-03-06T10:11:13.808Z,20.34
2018-03-06T10:12:13.786Z,20.44
2018-03-06T10:13:13.759Z,20.65
2018-03-06T10:14:13.735Z,20.65
2018-03-06T10:15:13.713Z,20.74
2018-03-06T10:16:13.686Z,20.43
2018-03-06T10:17:13.667Z,20.36
2018-03-06T10:18:13.641Z,20.43
2018-03-06T10:19:13.613Z,20.11
2018-03-06T10:20:13.591Z,20.51
2018-03-06T10:21:13.570Z,20.63
2018-03-06T10:22:13.546Z,20.81
2018-03-06T10:23:13.518Z,20.41
2018-03-06T10:24:13.491Z,20.07
2018-03-06T10:25:13.470Z,19.85
2018-03-06T10:26:13.442Z,19.95
2018-03-06T10:27:13.418Z,20.00
2018-03-06T10:28:13.391Z,20.19
2018-03-06T10:29:13.370Z,20.34
2018-03-06T10:30:13.345Z,20.74
2018-03-06T10:31:13.321Z,20.81
2018-03-06T10:32:13.293Z,21.09
2018-03-06T10:33:13.270Z,21.15
2018-03-06T10:34:13.247Z,21.40
2018-03-06T10:35:13.221Z,22.10
2018-03-06T10:36:13.197Z,22.15
2018-03-06T10:37:13.174Z,21.99
2018-03-06T10:38:13.153Z,22.45
2018-03-06T10:39:13.132Z,22.32
2018-03-06T10:40:13.105Z,22.39
2018-03-06T10:41:13.082Z,22.81
2018-03-06T10:42:13.061Z,22.88
2018-03-06T10:43:13.037Z,23.13
2018-03-06T10:44:13.014Z,23.44
2018-03-06T10:45:12.993Z,23.10
2018-03-06T10:46:12.972Z,23.58
2018-03-06T10:47:12.949Z,23.83
2018-03-06T10:48:12.926Z,23.66
2018-03-06T10:49:12.903Z,24.03
2018-03-06T10:50:12.885Z,24.14
2018-03-06T10:51:12.871Z,24.93
2018-03-06T10:52:12.843Z,25.31
2018-03-06T10:53:12.822Z,25.17
2018-03-06T10:54:12.799Z,24.99
2018-03-06T10:55:12.781Z,24.86
2018-03-06T10:56:12.757Z,24.85
2018-03-06T10:57:12.736Z,25.04
2018-03-06T10:58:12.716Z,25.53
2018-03-06T10:59:12.694Z,26.18
2018-03-06T11:00:12.675Z,26.36
2018-03-06T11:01:12.662Z,26.38
2018-03-06T11:02:12.682Z,26.52
2018-03-06T11:03:12.614Z,26.88
2018-03-06T11:04:12.593Z,26.65
2018-03-06T11:05:12.573Z,26.81
2018-03-06T11:06:12.549Z,26.55
2018-03-06T11:07:12.531Z,27.18
2018-03-06T11:08:12.556Z,27.51
2018-03-06T11:09:12.489Z,27.44
2018-03-06T11:10:12.471Z,27.60
2018-03-06T11:11:12.467Z,27.93
2018-03-06T11:12:12.432Z,27.96
2018-03-06T11:13:12.411Z,28.20
2018-03-06T11:14:12.394Z,28.17
2018-03-06T11:15:12.375Z,28.74
2018-03-06T11:16:12.353Z,28.47
2018-03-06T11:17:12.336Z,28.97
2018-03-06T11:18:12.316Z,29.08
2018-03-06T11:19:12.296Z,28.75
2018-03-06T11:20:12.278Z,28.63
2018-03-06T11:21:12.264Z,28.60
2018-03-06T11:22:12.239Z,28.78
2018-03-06T11:23:12.224Z,28.56
2018-03-06T11:24:12.202Z,28.94
2018-03-06T11:25:12.186Z,28.76
2018-03-06T11:26:12.168Z,29.08
2018-03-06T11:27:12.146Z,28.88
2018-03-06T11:28:12.132Z,28.76
2018-03-06T11:29:12.109Z,28.75
2018-03-06T11:30:12.093Z,28.25
2018-03-06T11:31:12.074Z,28.64
2018-03-06T11:32:12.054Z,28.39
2018-03-06T11:33:12.032Z,28.10
2018-03-06T11:34:12.017Z,27.80
2018-03-06T11:35:11.994Z,28.33
2018-03-06T11:36:11.976Z,28.25
2018-03-06T11:37:11.953Z,28.10
2018-03-06T11:38:11.939Z,27.60
2018-03-06T11:39:11.912Z,26.36
2018-03-06T11:40:11.905Z,26.00
2018-03-06T11:41:11.922Z,25.28
2018-03-06T11:42:11.855Z,25.06
2018-03-06T11:43:11.845Z,24.58
2018-03-06T11:44:11.806Z,24.35
2018-03-06T11:45:11.790Z,24.39
2018-03-06T11:46:11.770Z,24.39
2018-03-06T11:47:11.748Z,24.50
2018-03-06T11:48:11.722Z,24.92
2018-03-06T11:49:11.706Z,25.43
2018-03-06T11:50:11.684Z,25.54
2018-03-06T11:51:11.662Z,24.98
2018-03-06T11:52:11.636Z,24.70
2018-03-06T11:53:11.617Z,24.85
2018-03-06T11:54:11.594Z,24.70
2018-03-06T11:55:11.571Z,24.35
2018-03-06T11:56:11.546Z,23.73
2018-03-06T11:57:11.527Z,23.28
2018-03-06T11:58:11.503Z,23.10
2018-03-06T11:59:11.481Z,22.81
2018-03-06T12:00:11.458Z,22.68
2018-03-06T12:01:11.432Z,22.51
2018-03-06T12:02:11.409Z,22.23
2018-03-06T12:03:11.387Z,22.26
2018-03-06T12:04:11.361Z,22.10
2018-03-06T12:05:11.337Z,22.02
2018-03-06T12:06:11.314Z,21.88
2018-03-06T12:07:11.344Z,21.99
2018-03-06T12:08:11.265Z,21.83
2018-03-06T12:09:11.241Z,21.79
2018-03-06T12:10:11.217Z,21.70
2018-03-06T12:11:11.192Z,21.52
2018-03-06T12:12:11.165Z,21.32
2018-03-06T12:13:11.141Z,21.42
2018-03-06T12:14:11.114Z,21.07
2018-03-06T12:15:11.091Z,21.02
2018-03-06T12:16:11.063Z,20.88
2018-03-06T12:17:11.039Z,21.05
2018-03-06T12:18:11.013Z,21.11
2018-03-06T12:19:10.988Z,21.15
2018-03-06T12:20:10.960Z,21.32
2018-03-06T12:21:10.936Z,21.14
2018-03-06T12:22:10.909Z,21.21
2018-03-06T12:23:10.884Z,21.30
2018-03-06T12:24:10.862Z,21.40
2018-03-06T12:25:10.832Z,21.35
2018-03-06T12:26:10.807Z,21.55
2018-03-06T12:27:10.782Z,21.64
2018-03-06T12:28:10.753Z,21.66
2018-03-06T12:29:10.730Z,21.30
2018-03-06T12:30:10.704Z,20.90
2018-03-06T12:31:10.676Z,20.62
2018-03-06T12:32:10.651Z,20.10
2018-03-06T12:33:10.626Z,19.88
2018-03-06T12:34:10.596Z,19.63
2018-03-06T12:35:10.573Z,19.21
2018-03-06T12:36:10.543Z,19.33
2018-03-06T12:37:10.517Z,18.81
2018-03-06T12:38:10.489Z,18.71
2018-03-06T12:39:10.464Z,18.50
2018-03-06T12:40:10.436Z,18.55
2018-03-06T12:41:10.406Z,18.23
2018-03-06T12:42:10.383Z,18.07
2018-03-06T12:43:10.354Z,18.05
2018-03-06T12:44:10.323Z,17.92
2018-03-06T12:45:10.296Z,17.79
2018-03-06T12:46:10.267Z,17.90
2018-03-06T12:47:10.238Z,18.15
2018-03-06T12:48:10.209Z,18.35
2018-03-06T12:49:10.183Z,18.65
2018-03-06T12:50:10.156Z,19.29
2018-03-06T12:51:10.397Z,20.03
2018-03-06T12:52:10.099Z,20.81
2018-03-06T12:53:10.072Z,21.09
2018-03-06T12:54:10.041Z,21.11
2018-03-06T12:55:10.019Z,20.88
2018-03-06T12:56:09.989Z,21.02
2018-03-06T12:57:09.964Z,20.52
2018-03-06T12:58:09.936Z,20.40
2018-03-06T12:59:09.912Z,20.14
2018-03-06T13:00:09.891Z,20.10
2018-03-06T13:01:09.855Z,19.91
2018-03-06T13:02:09.830Z,19.91
2018-03-06T13:03:09.801Z,19.82
2018-03-06T13:04:09.776Z,19.77
2018-03-06T13:05:09.749Z,19.59
2018-03-06T13:06:09.720Z,19.58
2018-03-06T13:07:09.704Z,19.71
2018-03-06T13:08:10.497Z,19.56
2018-03-06T13:09:09.640Z,19.63